Sunday, October 26, 2014, 1:07 AM EDT

KOFP, Hanover County Municipal

Location: Ashland, VA, United States Lat: 37.7
Local Time: 1:07 AM EDT ( 5:07 GMT) Lon: -77.433
Time Zone: US/Eastern Elev: 203 ft

Show me the last for .
Show Decoded

2014-10-26 00:54 METAR KOFP 260454Z AUTO 25005KT 10SM CLR 14/07 A2977 RMK AO2 SLP079 T01390072
                 402170028 =
2014-10-25 23:54 METAR KOFP 260354Z AUTO 24005KT 10SM CLR 14/07 A2976 RMK AO2 SLP078 T01440067 =
2014-10-25 22:54 METAR KOFP 260254Z AUTO 23006KT 10SM CLR 15/07 A2977 RMK AO2 SLP081 T01500067
                 56015 =
2014-10-25 20:54 METAR KOFP 260054Z AUTO 19006KT 10SM CLR 15/07 A2980 RMK AO2 SLP091 T01500067 =
2014-10-25 19:54 METAR KOFP 252354Z AUTO 20007KT 10SM CLR 17/06 A2982 RMK AO2 SLP097 T01670061
                 10217 20161 56012 =
2014-10-25 18:54 METAR KOFP 252254Z AUTO 19007KT 10SM CLR 17/06 A2982 RMK AO2 SLP097 T01670056 =
2014-10-25 17:54 METAR KOFP 252154Z AUTO 21006KT 10SM CLR 19/04 A2984 RMK AO2 SLP103 T01940044 =
2014-10-25 16:54 METAR KOFP 252054Z AUTO 22009KT 10SM CLR 21/03 A2985 RMK AO2 SLP108 T02110033
                 56018 =
2014-10-25 15:54 METAR KOFP 251954Z AUTO 24012KT 10SM CLR 22/02 A2986 RMK AO2 SLP110 T02170022 =
2014-10-25 14:54 METAR KOFP 251854Z AUTO 24010KT 10SM CLR 21/03 A2988 RMK AO2 SLP119 T02110028 =
2014-10-25 13:54 METAR KOFP 251754Z AUTO 20006KT 8SM CLR 21/06 A2991 RMK AO2 SLP126 T02060056
                 10211 20028 58036 =
2014-10-25 12:54 METAR KOFP 251654Z AUTO 21006KT 10SM CLR 19/05 A2995 RMK AO2 SLP140 T01890050 =
2014-10-25 11:54 METAR KOFP 251554Z AUTO VRB04KT 10SM CLR 18/06 A2998 RMK AO2 SLP152 T01780056 =
2014-10-25 10:54 METAR KOFP 251454Z AUTO 00000KT 10SM CLR 15/06 A3001 RMK AO2 SLP163 T01500061
                 50005 =
2014-10-25 09:54 METAR KOFP 251354Z AUTO 29003KT 10SM CLR 12/07 A3002 RMK AO2 SLP165 T01170067 =
2014-10-25 08:08 METAR KOFP 251208Z AUTO 00000KT 3SM BR CLR 03/03 A3000 RMK AO2 T00330033 =
2014-10-25 07:54 METAR KOFP 251154Z AUTO 00000KT 2 1/2SM BR CLR 03/02 A3000 RMK AO2 SLP159
                 T00280022 10056 20028 51005 =
2014-10-25 07:42 METAR KOFP 251142Z AUTO 00000KT 3SM BR CLR 03/02 A3000 RMK AO2 T00280022 =
2014-10-25 07:33 METAR KOFP 251133Z AUTO 00000KT 2SM BR CLR 03/03 A3000 RMK AO2 T00280028 =
2014-10-25 07:22 METAR KOFP 251122Z AUTO 00000KT 3/4SM BR CLR 03/02 A3000 RMK AO2 T00280022 =
2014-10-25 07:17 METAR KOFP 251117Z AUTO 00000KT 1 3/4SM BR CLR 03/02 A3000 RMK AO2 VIS 3/4V5
                 T00280022 =
2014-10-25 07:09 METAR KOFP 251109Z AUTO 00000KT 4SM BR CLR 03/03 A3000 RMK AO2 T00280028 =
2014-10-25 06:54 METAR KOFP 251054Z AUTO 00000KT 2 1/2SM BR CLR 03/03 A3000 RMK AO2 SLP158
                 T00280028 =
2014-10-25 05:54 METAR KOFP 250954Z AUTO 00000KT 6SM BR CLR 03/03 A2999 RMK AO2 SLP156 T00330033
                 =
2014-10-25 04:54 METAR KOFP 250854Z AUTO 00000KT 5SM BR CLR 03/03 A2999 RMK AO2 SLP154 T00330033
                 53002 =
2014-10-25 03:54 METAR KOFP 250754Z AUTO 00000KT 7SM CLR 04/04 A2998 RMK AO2 SLP152 T00440039 =
2014-10-25 02:54 METAR KOFP 250654Z AUTO 00000KT 7SM CLR 05/04 A2998 RMK AO2 SLP151 T00500044 =
2014-10-25 01:54 METAR KOFP 250554Z AUTO 00000KT 7SM CLR 06/05 A2998 RMK AO2 SLP151 T00560050
                 10100 20056 50001 =

Support USWX by starting your Amazon purchase here.